sensor_id;sensor_type;location;lat;lon;timestamp;P1;durP1;ratioP1;P2;durP2;ratioP2
3311;SDS011;1668;49.648;8.570;2022-10-16T00:01:04;1.63;;;0.90;;
3311;SDS011;1668;49.648;8.570;2022-10-16T00:03:32;5.33;;;0.80;;
3311;SDS011;1668;49.648;8.570;2022-10-16T00:06:00;2.07;;;0.90;;
3311;SDS011;1668;49.648;8.570;2022-10-16T00:08:27;3.80;;;1.00;;
3311;SDS011;1668;49.648;8.570;2022-10-16T00:10:58;1.10;;;0.80;;
3311;SDS011;1668;49.648;8.570;2022-10-16T00:13:27;1.83;;;0.80;;
3311;SDS011;1668;49.648;8.570;2022-10-16T00:15:55;1.30;;;0.80;;
3311;SDS011;1668;49.648;8.570;2022-10-16T00:18:22;1.93;;;0.90;;
3311;SDS011;1668;49.648;8.570;2022-10-16T00:20:49;1.13;;;0.80;;
3311;SDS011;1668;49.648;8.570;2022-10-16T00:23:17;1.47;;;0.97;;
3311;SDS011;1668;49.648;8.570;2022-10-16T00:25:44;1.30;;;0.80;;
3311;SDS011;1668;49.648;8.570;2022-10-16T00:28:11;1.17;;;0.70;;
3311;SDS011;1668;49.648;8.570;2022-10-16T00:30:39;1.30;;;0.80;;
3311;SDS011;1668;49.648;8.570;2022-10-16T00:33:06;1.40;;;0.90;;
3311;SDS011;1668;49.648;8.570;2022-10-16T00:35:33;1.97;;;1.00;;
3311;SDS011;1668;49.648;8.570;2022-10-16T00:37:59;3.33;;;1.10;;
3311;SDS011;1668;49.648;8.570;2022-10-16T00:40:26;1.20;;;0.80;;
3311;SDS011;1668;49.648;8.570;2022-10-16T00:42:54;1.23;;;1.00;;
3311;SDS011;1668;49.648;8.570;2022-10-16T00:45:21;1.63;;;1.17;;
3311;SDS011;1668;49.648;8.570;2022-10-16T00:47:49;2.17;;;1.03;;
3311;SDS011;1668;49.648;8.570;2022-10-16T00:50:27;1.17;;;1.03;;
3311;SDS011;1668;49.648;8.570;2022-10-16T00:52:56;2.00;;;1.30;;
3311;SDS011;1668;49.648;8.570;2022-10-16T00:55:24;2.23;;;1.10;;
3311;SDS011;1668;49.648;8.570;2022-10-16T00:57:52;3.57;;;1.37;;
3311;SDS011;1668;49.648;8.570;2022-10-16T01:00:21;2.40;;;1.67;;
3311;SDS011;1668;49.648;8.570;2022-10-16T01:02:54;2.60;;;1.57;;
3311;SDS011;1668;49.648;8.570;2022-10-16T01:05:23;3.17;;;1.80;;
3311;SDS011;1668;49.648;8.570;2022-10-16T01:07:56;3.03;;;2.10;;
3311;SDS011;1668;49.648;8.570;2022-10-16T01:10:27;2.90;;;1.80;;
3311;SDS011;1668;49.648;8.570;2022-10-16T01:13:02;3.53;;;2.00;;
3311;SDS011;1668;49.648;8.570;2022-10-16T01:15:32;2.00;;;1.67;;
3311;SDS011;1668;49.648;8.570;2022-10-16T01:18:05;2.60;;;1.80;;
3311;SDS011;1668;49.648;8.570;2022-10-16T01:20:37;7.20;;;1.90;;
3311;SDS011;1668;49.648;8.570;2022-10-16T01:23:10;2.90;;;2.10;;
3311;SDS011;1668;49.648;8.570;2022-10-16T01:25:52;2.30;;;1.93;;
3311;SDS011;1668;49.648;8.570;2022-10-16T01:28:32;6.07;;;2.20;;
3311;SDS011;1668;49.648;8.570;2022-10-16T01:31:05;2.23;;;2.03;;
3311;SDS011;1668;49.648;8.570;2022-10-16T01:33:35;4.20;;;2.60;;
3311;SDS011;1668;49.648;8.570;2022-10-16T01:36:06;5.00;;;2.67;;
3311;SDS011;1668;49.648;8.570;2022-10-16T01:38:36;2.97;;;2.27;;
3311;SDS011;1668;49.648;8.570;2022-10-16T01:41:06;3.87;;;2.90;;
3311;SDS011;1668;49.648;8.570;2022-10-16T01:43:38;6.20;;;2.40;;
3311;SDS011;1668;49.648;8.570;2022-10-16T01:46:07;3.60;;;2.47;;
3311;SDS011;1668;49.648;8.570;2022-10-16T01:48:36;3.97;;;2.57;;
3311;SDS011;1668;49.648;8.570;2022-10-16T01:51:06;3.33;;;2.60;;
3311;SDS011;1668;49.648;8.570;2022-10-16T01:53:36;3.20;;;2.53;;
3311;SDS011;1668;49.648;8.570;2022-10-16T01:56:04;4.53;;;3.10;;
3311;SDS011;1668;49.648;8.570;2022-10-16T01:58:35;3.80;;;2.70;;
3311;SDS011;1668;49.648;8.570;2022-10-16T02:01:07;4.07;;;2.80;;
3311;SDS011;1668;49.648;8.570;2022-10-16T02:03:36;3.97;;;3.07;;
3311;SDS011;1668;49.648;8.570;2022-10-16T02:06:06;3.67;;;2.47;;
3311;SDS011;1668;49.648;8.570;2022-10-16T02:08:33;4.20;;;2.73;;
3311;SDS011;1668;49.648;8.570;2022-10-16T02:11:01;7.40;;;2.60;;
3311;SDS011;1668;49.648;8.570;2022-10-16T02:13:30;3.30;;;2.90;;
3311;SDS011;1668;49.648;8.570;2022-10-16T02:16:01;8.30;;;2.53;;
3311;SDS011;1668;49.648;8.570;2022-10-16T02:18:27;8.20;;;3.00;;
3311;SDS011;1668;49.648;8.570;2022-10-16T02:20:57;5.00;;;2.70;;
3311;SDS011;1668;49.648;8.570;2022-10-16T02:23:29;4.67;;;2.70;;
3311;SDS011;1668;49.648;8.570;2022-10-16T02:26:01;3.60;;;2.33;;
3311;SDS011;1668;49.648;8.570;2022-10-16T02:28:34;7.40;;;3.10;;
3311;SDS011;1668;49.648;8.570;2022-10-16T02:31:08;4.33;;;2.50;;
3311;SDS011;1668;49.648;8.570;2022-10-16T02:33:37;5.07;;;2.57;;
3311;SDS011;1668;49.648;8.570;2022-10-16T02:36:06;6.87;;;2.20;;
3311;SDS011;1668;49.648;8.570;2022-10-16T02:38:34;4.17;;;2.33;;
3311;SDS011;1668;49.648;8.570;2022-10-16T02:41:02;3.50;;;2.30;;
3311;SDS011;1668;49.648;8.570;2022-10-16T02:43:30;7.87;;;2.30;;
3311;SDS011;1668;49.648;8.570;2022-10-16T02:45:58;5.93;;;2.17;;
3311;SDS011;1668;49.648;8.570;2022-10-16T02:48:26;4.63;;;2.30;;
3311;SDS011;1668;49.648;8.570;2022-10-16T02:50:53;7.30;;;2.30;;
3311;SDS011;1668;49.648;8.570;2022-10-16T02:53:20;3.83;;;2.40;;
3311;SDS011;1668;49.648;8.570;2022-10-16T02:55:47;7.77;;;2.23;;
3311;SDS011;1668;49.648;8.570;2022-10-16T02:58:14;4.30;;;2.50;;
3311;SDS011;1668;49.648;8.570;2022-10-16T03:00:41;3.50;;;2.47;;
3311;SDS011;1668;49.648;8.570;2022-10-16T03:03:08;2.97;;;2.27;;
3311;SDS011;1668;49.648;8.570;2022-10-16T03:05:36;6.13;;;2.20;;
3311;SDS011;1668;49.648;8.570;2022-10-16T03:08:03;4.30;;;2.17;;
3311;SDS011;1668;49.648;8.570;2022-10-16T03:10:30;5.93;;;2.70;;
3311;SDS011;1668;49.648;8.570;2022-10-16T03:12:57;4.97;;;2.40;;
3311;SDS011;1668;49.648;8.570;2022-10-16T03:15:24;4.50;;;2.80;;
3311;SDS011;1668;49.648;8.570;2022-10-16T03:17:50;3.00;;;1.90;;
3311;SDS011;1668;49.648;8.570;2022-10-16T03:20:17;7.07;;;2.40;;
3311;SDS011;1668;49.648;8.570;2022-10-16T03:22:45;5.00;;;2.23;;
3311;SDS011;1668;49.648;8.570;2022-10-16T03:25:12;4.63;;;2.10;;
3311;SDS011;1668;49.648;8.570;2022-10-16T03:27:39;5.13;;;2.67;;
3311;SDS011;1668;49.648;8.570;2022-10-16T03:30:06;3.10;;;2.40;;
3311;SDS011;1668;49.648;8.570;2022-10-16T03:32:34;4.30;;;2.20;;
3311;SDS011;1668;49.648;8.570;2022-10-16T03:35:01;5.70;;;2.27;;
3311;SDS011;1668;49.648;8.570;2022-10-16T03:37:28;2.60;;;2.13;;
3311;SDS011;1668;49.648;8.570;2022-10-16T03:39:56;6.40;;;2.10;;
3311;SDS011;1668;49.648;8.570;2022-10-16T03:42:24;4.80;;;2.20;;
3311;SDS011;1668;49.648;8.570;2022-10-16T03:44:51;4.57;;;2.30;;
3311;SDS011;1668;49.648;8.570;2022-10-16T03:47:17;3.77;;;2.43;;
3311;SDS011;1668;49.648;8.570;2022-10-16T03:49:46;3.90;;;2.43;;
3311;SDS011;1668;49.648;8.570;2022-10-16T03:52:13;3.60;;;2.27;;
3311;SDS011;1668;49.648;8.570;2022-10-16T03:54:40;4.63;;;2.13;;
3311;SDS011;1668;49.648;8.570;2022-10-16T03:57:09;5.90;;;2.67;;
3311;SDS011;1668;49.648;8.570;2022-10-16T03:59:36;4.30;;;2.77;;
3311;SDS011;1668;49.648;8.570;2022-10-16T04:02:02;3.23;;;2.13;;
3311;SDS011;1668;49.648;8.570;2022-10-16T04:04:29;4.33;;;2.33;;
3311;SDS011;1668;49.648;8.570;2022-10-16T04:06:56;3.40;;;2.37;;
3311;SDS011;1668;49.648;8.570;2022-10-16T04:09:23;5.27;;;2.57;;
3311;SDS011;1668;49.648;8.570;2022-10-16T04:11:50;3.90;;;2.80;;
3311;SDS011;1668;49.648;8.570;2022-10-16T04:14:18;4.03;;;2.40;;
3311;SDS011;1668;49.648;8.570;2022-10-16T04:16:45;3.30;;;2.43;;
3311;SDS011;1668;49.648;8.570;2022-10-16T04:19:12;6.80;;;2.60;;
3311;SDS011;1668;49.648;8.570;2022-10-16T04:21:39;3.73;;;2.37;;
3311;SDS011;1668;49.648;8.570;2022-10-16T04:24:05;9.27;;;2.93;;
3311;SDS011;1668;49.648;8.570;2022-10-16T04:26:32;2.77;;;2.20;;
3311;SDS011;1668;49.648;8.570;2022-10-16T04:28:59;4.80;;;2.77;;
3311;SDS011;1668;49.648;8.570;2022-10-16T04:31:28;4.77;;;2.47;;
3311;SDS011;1668;49.648;8.570;2022-10-16T04:33:55;5.43;;;2.27;;
3311;SDS011;1668;49.648;8.570;2022-10-16T04:36:22;5.23;;;2.80;;
3311;SDS011;1668;49.648;8.570;2022-10-16T04:38:49;6.47;;;2.60;;
3311;SDS011;1668;49.648;8.570;2022-10-16T04:41:15;3.37;;;2.40;;
3311;SDS011;1668;49.648;8.570;2022-10-16T04:43:42;5.37;;;2.70;;
3311;SDS011;1668;49.648;8.570;2022-10-16T04:46:09;2.50;;;2.03;;
3311;SDS011;1668;49.648;8.570;2022-10-16T04:48:37;6.83;;;2.30;;
3311;SDS011;1668;49.648;8.570;2022-10-16T04:51:04;6.50;;;2.60;;
3311;SDS011;1668;49.648;8.570;2022-10-16T04:53:31;4.93;;;2.50;;
3311;SDS011;1668;49.648;8.570;2022-10-16T04:55:58;3.53;;;2.40;;
3311;SDS011;1668;49.648;8.570;2022-10-16T04:58:25;5.00;;;2.07;;
3311;SDS011;1668;49.648;8.570;2022-10-16T05:00:52;5.10;;;2.30;;
3311;SDS011;1668;49.648;8.570;2022-10-16T05:03:19;5.80;;;2.93;;
3311;SDS011;1668;49.648;8.570;2022-10-16T05:05:47;4.60;;;2.20;;
3311;SDS011;1668;49.648;8.570;2022-10-16T05:08:14;4.40;;;2.53;;
3311;SDS011;1668;49.648;8.570;2022-10-16T05:10:42;4.33;;;2.10;;
3311;SDS011;1668;49.648;8.570;2022-10-16T05:13:10;3.13;;;2.30;;
3311;SDS011;1668;49.648;8.570;2022-10-16T05:15:37;7.10;;;2.20;;
3311;SDS011;1668;49.648;8.570;2022-10-16T05:18:05;5.50;;;2.60;;
3311;SDS011;1668;49.648;8.570;2022-10-16T05:20:32;4.20;;;2.30;;
3311;SDS011;1668;49.648;8.570;2022-10-16T05:23:00;2.13;;;1.93;;
3311;SDS011;1668;49.648;8.570;2022-10-16T05:25:27;3.40;;;2.17;;
3311;SDS011;1668;49.648;8.570;2022-10-16T05:27:53;4.70;;;2.00;;
3311;SDS011;1668;49.648;8.570;2022-10-16T05:30:20;3.60;;;2.30;;
3311;SDS011;1668;49.648;8.570;2022-10-16T05:32:48;2.40;;;1.90;;
3311;SDS011;1668;49.648;8.570;2022-10-16T05:35:15;5.43;;;2.30;;
3311;SDS011;1668;49.648;8.570;2022-10-16T05:37:43;3.30;;;2.20;;
3311;SDS011;1668;49.648;8.570;2022-10-16T05:40:12;6.00;;;1.60;;
3311;SDS011;1668;49.648;8.570;2022-10-16T05:42:40;3.87;;;2.10;;
3311;SDS011;1668;49.648;8.570;2022-10-16T05:45:08;5.07;;;2.00;;
3311;SDS011;1668;49.648;8.570;2022-10-16T05:47:37;3.20;;;2.23;;
3311;SDS011;1668;49.648;8.570;2022-10-16T05:50:04;2.80;;;2.13;;
3311;SDS011;1668;49.648;8.570;2022-10-16T05:52:31;3.50;;;2.70;;
3311;SDS011;1668;49.648;8.570;2022-10-16T05:54:58;3.27;;;2.33;;
3311;SDS011;1668;49.648;8.570;2022-10-16T05:57:26;4.30;;;2.57;;
3311;SDS011;1668;49.648;8.570;2022-10-16T05:59:53;2.93;;;1.97;;
3311;SDS011;1668;49.648;8.570;2022-10-16T06:02:20;2.83;;;2.20;;
3311;SDS011;1668;49.648;8.570;2022-10-16T06:04:47;4.10;;;2.10;;
3311;SDS011;1668;49.648;8.570;2022-10-16T06:07:14;3.70;;;2.20;;
3311;SDS011;1668;49.648;8.570;2022-10-16T06:09:40;3.37;;;1.93;;
3311;SDS011;1668;49.648;8.570;2022-10-16T06:12:07;6.17;;;2.33;;
3311;SDS011;1668;49.648;8.570;2022-10-16T06:14:35;4.07;;;2.60;;
3311;SDS011;1668;49.648;8.570;2022-10-16T06:17:02;2.40;;;1.97;;
3311;SDS011;1668;49.648;8.570;2022-10-16T06:19:29;4.00;;;2.70;;
3311;SDS011;1668;49.648;8.570;2022-10-16T06:21:56;3.30;;;2.60;;
3311;SDS011;1668;49.648;8.570;2022-10-16T06:24:24;5.07;;;2.90;;
3311;SDS011;1668;49.648;8.570;2022-10-16T06:26:51;5.17;;;2.47;;
3311;SDS011;1668;49.648;8.570;2022-10-16T06:29:18;4.33;;;2.70;;
3311;SDS011;1668;49.648;8.570;2022-10-16T06:31:46;5.77;;;2.50;;
3311;SDS011;1668;49.648;8.570;2022-10-16T06:34:13;8.90;;;2.73;;
3311;SDS011;1668;49.648;8.570;2022-10-16T06:36:40;3.10;;;2.40;;
3311;SDS011;1668;49.648;8.570;2022-10-16T06:39:08;6.53;;;2.40;;
3311;SDS011;1668;49.648;8.570;2022-10-16T06:41:35;7.73;;;2.97;;
3311;SDS011;1668;49.648;8.570;2022-10-16T06:44:04;7.57;;;3.30;;
3311;SDS011;1668;49.648;8.570;2022-10-16T06:46:32;7.63;;;3.40;;
3311;SDS011;1668;49.648;8.570;2022-10-16T06:49:00;5.17;;;3.90;;
3311;SDS011;1668;49.648;8.570;2022-10-16T06:51:27;6.33;;;3.90;;
3311;SDS011;1668;49.648;8.570;2022-10-16T06:53:55;6.30;;;3.27;;
3311;SDS011;1668;49.648;8.570;2022-10-16T06:56:23;5.80;;;3.30;;
3311;SDS011;1668;49.648;8.570;2022-10-16T06:58:51;6.67;;;3.70;;
3311;SDS011;1668;49.648;8.570;2022-10-16T07:01:19;4.97;;;3.77;;
3311;SDS011;1668;49.648;8.570;2022-10-16T07:03:47;6.50;;;3.90;;
3311;SDS011;1668;49.648;8.570;2022-10-16T07:06:16;6.77;;;4.13;;
3311;SDS011;1668;49.648;8.570;2022-10-16T07:08:45;7.37;;;3.47;;
3311;SDS011;1668;49.648;8.570;2022-10-16T07:11:13;6.17;;;3.60;;
3311;SDS011;1668;49.648;8.570;2022-10-16T07:13:42;4.53;;;2.93;;
3311;SDS011;1668;49.648;8.570;2022-10-16T07:16:10;5.23;;;2.93;;
3311;SDS011;1668;49.648;8.570;2022-10-16T07:18:39;4.17;;;2.70;;
3311;SDS011;1668;49.648;8.570;2022-10-16T07:21:08;6.00;;;3.93;;
3311;SDS011;1668;49.648;8.570;2022-10-16T07:23:37;7.60;;;5.17;;
3311;SDS011;1668;49.648;8.570;2022-10-16T07:26:05;4.77;;;4.27;;
3311;SDS011;1668;49.648;8.570;2022-10-16T07:28:32;7.17;;;3.67;;
3311;SDS011;1668;49.648;8.570;2022-10-16T07:31:00;7.93;;;3.67;;
3311;SDS011;1668;49.648;8.570;2022-10-16T07:33:28;4.67;;;2.50;;
3311;SDS011;1668;49.648;8.570;2022-10-16T07:35:55;3.73;;;2.50;;
3311;SDS011;1668;49.648;8.570;2022-10-16T07:38:22;3.30;;;2.40;;
3311;SDS011;1668;49.648;8.570;2022-10-16T07:40:56;3.43;;;2.70;;
3311;SDS011;1668;49.648;8.570;2022-10-16T07:43:24;6.50;;;2.87;;
3311;SDS011;1668;49.648;8.570;2022-10-16T07:45:51;9.60;;;2.77;;
3311;SDS011;1668;49.648;8.570;2022-10-16T07:48:19;5.37;;;3.07;;
3311;SDS011;1668;49.648;8.570;2022-10-16T07:50:46;6.17;;;2.47;;
3311;SDS011;1668;49.648;8.570;2022-10-16T07:53:13;5.30;;;2.80;;
3311;SDS011;1668;49.648;8.570;2022-10-16T07:55:40;5.03;;;2.23;;
3311;SDS011;1668;49.648;8.570;2022-10-16T07:58:08;5.60;;;2.00;;
3311;SDS011;1668;49.648;8.570;2022-10-16T08:00:35;4.23;;;1.90;;
3311;SDS011;1668;49.648;8.570;2022-10-16T08:03:03;3.87;;;2.07;;
3311;SDS011;1668;49.648;8.570;2022-10-16T08:05:31;4.40;;;2.20;;
3311;SDS011;1668;49.648;8.570;2022-10-16T08:07:58;3.60;;;1.93;;
3311;SDS011;1668;49.648;8.570;2022-10-16T08:10:26;3.60;;;1.90;;
3311;SDS011;1668;49.648;8.570;2022-10-16T08:12:54;3.73;;;1.70;;
3311;SDS011;1668;49.648;8.570;2022-10-16T08:15:22;3.30;;;2.10;;
3311;SDS011;1668;49.648;8.570;2022-10-16T08:17:56;4.97;;;2.33;;
3311;SDS011;1668;49.648;8.570;2022-10-16T08:20:23;3.53;;;2.00;;
3311;SDS011;1668;49.648;8.570;2022-10-16T08:22:51;3.97;;;2.27;;
3311;SDS011;1668;49.648;8.570;2022-10-16T08:25:19;3.97;;;2.03;;
3311;SDS011;1668;49.648;8.570;2022-10-16T08:27:46;3.30;;;1.87;;
3311;SDS011;1668;49.648;8.570;2022-10-16T08:30:13;3.70;;;2.10;;
3311;SDS011;1668;49.648;8.570;2022-10-16T08:32:42;3.40;;;2.23;;
3311;SDS011;1668;49.648;8.570;2022-10-16T08:35:09;2.83;;;1.67;;
3311;SDS011;1668;49.648;8.570;2022-10-16T08:37:37;3.60;;;2.10;;
3311;SDS011;1668;49.648;8.570;2022-10-16T08:40:05;4.90;;;3.07;;
3311;SDS011;1668;49.648;8.570;2022-10-16T08:42:41;5.03;;;2.80;;
3311;SDS011;1668;49.648;8.570;2022-10-16T08:45:23;9.07;;;3.03;;
3311;SDS011;1668;49.648;8.570;2022-10-16T08:48:03;6.00;;;3.03;;
3311;SDS011;1668;49.648;8.570;2022-10-16T08:50:40;7.57;;;3.00;;
3311;SDS011;1668;49.648;8.570;2022-10-16T08:53:09;7.40;;;3.57;;
3311;SDS011;1668;49.648;8.570;2022-10-16T08:55:41;8.03;;;3.73;;
3311;SDS011;1668;49.648;8.570;2022-10-16T08:58:10;8.50;;;3.77;;
3311;SDS011;1668;49.648;8.570;2022-10-16T09:00:39;5.13;;;3.23;;
3311;SDS011;1668;49.648;8.570;2022-10-16T09:03:13;4.43;;;2.90;;
3311;SDS011;1668;49.648;8.570;2022-10-16T09:06:08;8.10;;;4.67;;
3311;SDS011;1668;49.648;8.570;2022-10-16T09:08:51;9.67;;;7.93;;
3311;SDS011;1668;49.648;8.570;2022-10-16T09:11:31;4.50;;;3.80;;
3311;SDS011;1668;49.648;8.570;2022-10-16T09:14:07;4.20;;;3.80;;
3311;SDS011;1668;49.648;8.570;2022-10-16T09:16:46;5.47;;;3.50;;
3311;SDS011;1668;49.648;8.570;2022-10-16T09:19:20;5.27;;;4.00;;
3311;SDS011;1668;49.648;8.570;2022-10-16T09:21:54;4.90;;;3.80;;
3311;SDS011;1668;49.648;8.570;2022-10-16T09:24:24;9.80;;;5.70;;
3311;SDS011;1668;49.648;8.570;2022-10-16T09:26:52;6.77;;;4.87;;
3311;SDS011;1668;49.648;8.570;2022-10-16T09:29:20;5.93;;;3.30;;
3311;SDS011;1668;49.648;8.570;2022-10-16T09:31:50;6.10;;;3.57;;
3311;SDS011;1668;49.648;8.570;2022-10-16T09:34:20;7.00;;;4.10;;
3311;SDS011;1668;49.648;8.570;2022-10-16T09:36:56;4.40;;;2.90;;
3311;SDS011;1668;49.648;8.570;2022-10-16T09:39:24;4.97;;;3.37;;
3311;SDS011;1668;49.648;8.570;2022-10-16T09:41:51;6.43;;;2.40;;
3311;SDS011;1668;49.648;8.570;2022-10-16T09:44:21;11.47;;;2.97;;
3311;SDS011;1668;49.648;8.570;2022-10-16T09:47:00;4.37;;;2.80;;
3311;SDS011;1668;49.648;8.570;2022-10-16T09:49:29;4.27;;;2.30;;
3311;SDS011;1668;49.648;8.570;2022-10-16T09:52:02;2.90;;;2.00;;
3311;SDS011;1668;49.648;8.570;2022-10-16T09:54:30;4.10;;;1.90;;
3311;SDS011;1668;49.648;8.570;2022-10-16T09:57:03;3.43;;;2.00;;
3311;SDS011;1668;49.648;8.570;2022-10-16T09:59:31;5.00;;;2.00;;
3311;SDS011;1668;49.648;8.570;2022-10-16T10:02:01;4.37;;;2.00;;
3311;SDS011;1668;49.648;8.570;2022-10-16T10:04:39;2.47;;;1.60;;
3311;SDS011;1668;49.648;8.570;2022-10-16T10:07:15;2.03;;;1.57;;
3311;SDS011;1668;49.648;8.570;2022-10-16T10:09:44;4.83;;;1.60;;
3311;SDS011;1668;49.648;8.570;2022-10-16T10:12:19;3.40;;;1.80;;
3311;SDS011;1668;49.648;8.570;2022-10-16T10:14:48;4.07;;;1.90;;
3311;SDS011;1668;49.648;8.570;2022-10-16T10:17:17;5.00;;;1.90;;
3311;SDS011;1668;49.648;8.570;2022-10-16T10:19:48;3.53;;;1.70;;
3311;SDS011;1668;49.648;8.570;2022-10-16T10:22:17;6.07;;;2.03;;
3311;SDS011;1668;49.648;8.570;2022-10-16T10:24:57;6.17;;;1.90;;
3311;SDS011;1668;49.648;8.570;2022-10-16T10:27:44;2.30;;;1.50;;
3311;SDS011;1668;49.648;8.570;2022-10-16T10:30:20;2.60;;;1.93;;
3311;SDS011;1668;49.648;8.570;2022-10-16T10:32:54;2.90;;;2.33;;
3311;SDS011;1668;49.648;8.570;2022-10-16T10:35:35;4.23;;;2.70;;
3311;SDS011;1668;49.648;8.570;2022-10-16T10:38:12;4.67;;;2.90;;
3311;SDS011;1668;49.648;8.570;2022-10-16T10:40:49;3.03;;;2.50;;
3311;SDS011;1668;49.648;8.570;2022-10-16T10:43:29;3.87;;;2.80;;
3311;SDS011;1668;49.648;8.570;2022-10-16T10:46:08;4.30;;;2.50;;
3311;SDS011;1668;49.648;8.570;2022-10-16T10:48:57;3.20;;;2.10;;
3311;SDS011;1668;49.648;8.570;2022-10-16T10:51:38;2.60;;;1.73;;
3311;SDS011;1668;49.648;8.570;2022-10-16T10:54:16;4.57;;;2.10;;
3311;SDS011;1668;49.648;8.570;2022-10-16T10:56:50;3.20;;;1.73;;
3311;SDS011;1668;49.648;8.570;2022-10-16T10:59:37;5.27;;;2.13;;
3311;SDS011;1668;49.648;8.570;2022-10-16T11:02:16;4.53;;;1.97;;
3311;SDS011;1668;49.648;8.570;2022-10-16T11:07:57;4.67;;;2.10;;
3311;SDS011;1668;49.648;8.570;2022-10-16T11:10:26;1.80;;;1.50;;
3311;SDS011;1668;49.648;8.570;2022-10-16T11:12:57;5.73;;;1.60;;
3311;SDS011;1668;49.648;8.570;2022-10-16T11:15:31;4.03;;;1.60;;
3311;SDS011;1668;49.648;8.570;2022-10-16T11:18:03;4.47;;;1.90;;
3311;SDS011;1668;49.648;8.570;2022-10-16T11:20:33;4.53;;;2.17;;
3311;SDS011;1668;49.648;8.570;2022-10-16T11:23:10;2.50;;;1.90;;
3311;SDS011;1668;49.648;8.570;2022-10-16T11:25:41;2.93;;;1.60;;
3311;SDS011;1668;49.648;8.570;2022-10-16T11:28:11;3.87;;;2.30;;
3311;SDS011;1668;49.648;8.570;2022-10-16T11:30:43;2.80;;;2.20;;
3311;SDS011;1668;49.648;8.570;2022-10-16T11:33:19;3.67;;;2.20;;
3311;SDS011;1668;49.648;8.570;2022-10-16T11:35:53;2.03;;;1.70;;
3311;SDS011;1668;49.648;8.570;2022-10-16T11:38:27;4.30;;;1.93;;
3311;SDS011;1668;49.648;8.570;2022-10-16T11:41:00;4.70;;;2.30;;
3311;SDS011;1668;49.648;8.570;2022-10-16T11:43:34;4.73;;;2.00;;
3311;SDS011;1668;49.648;8.570;2022-10-16T11:46:07;4.27;;;2.20;;
3311;SDS011;1668;49.648;8.570;2022-10-16T11:48:39;4.80;;;2.27;;
3311;SDS011;1668;49.648;8.570;2022-10-16T11:51:14;6.17;;;2.40;;
3311;SDS011;1668;49.648;8.570;2022-10-16T11:53:50;4.50;;;2.43;;
3311;SDS011;1668;49.648;8.570;2022-10-16T11:56:21;2.73;;;2.40;;
3311;SDS011;1668;49.648;8.570;2022-10-16T11:58:51;3.50;;;2.53;;
3311;SDS011;1668;49.648;8.570;2022-10-16T12:01:26;2.10;;;1.90;;
3311;SDS011;1668;49.648;8.570;2022-10-16T12:04:13;3.23;;;1.87;;
3311;SDS011;1668;49.648;8.570;2022-10-16T12:06:48;4.80;;;2.23;;
3311;SDS011;1668;49.648;8.570;2022-10-16T12:09:22;3.13;;;2.00;;
3311;SDS011;1668;49.648;8.570;2022-10-16T12:11:52;4.00;;;2.87;;
3311;SDS011;1668;49.648;8.570;2022-10-16T12:14:33;4.43;;;2.53;;
3311;SDS011;1668;49.648;8.570;2022-10-16T12:17:03;5.10;;;2.60;;
3311;SDS011;1668;49.648;8.570;2022-10-16T12:19:56;4.47;;;2.40;;
3311;SDS011;1668;49.648;8.570;2022-10-16T12:22:24;7.00;;;2.30;;
3311;SDS011;1668;49.648;8.570;2022-10-16T12:24:56;9.17;;;4.40;;
3311;SDS011;1668;49.648;8.570;2022-10-16T12:27:24;4.77;;;3.10;;
3311;SDS011;1668;49.648;8.570;2022-10-16T12:29:55;5.17;;;2.53;;
3311;SDS011;1668;49.648;8.570;2022-10-16T12:32:24;3.90;;;2.30;;
3311;SDS011;1668;49.648;8.570;2022-10-16T12:34:55;5.27;;;2.20;;
3311;SDS011;1668;49.648;8.570;2022-10-16T12:37:23;3.70;;;1.90;;
3311;SDS011;1668;49.648;8.570;2022-10-16T12:39:52;6.03;;;2.33;;
3311;SDS011;1668;49.648;8.570;2022-10-16T12:42:24;4.53;;;2.30;;
3311;SDS011;1668;49.648;8.570;2022-10-16T12:44:59;8.73;;;2.30;;
3311;SDS011;1668;49.648;8.570;2022-10-16T12:47:37;3.97;;;2.40;;
3311;SDS011;1668;49.648;8.570;2022-10-16T12:50:24;4.90;;;2.10;;
3311;SDS011;1668;49.648;8.570;2022-10-16T12:52:57;2.90;;;2.03;;
3311;SDS011;1668;49.648;8.570;2022-10-16T12:55:25;6.30;;;1.90;;
3311;SDS011;1668;49.648;8.570;2022-10-16T12:58:00;3.87;;;2.10;;
3311;SDS011;1668;49.648;8.570;2022-10-16T13:00:38;6.93;;;2.43;;
3311;SDS011;1668;49.648;8.570;2022-10-16T13:06:22;3.37;;;1.90;;
3311;SDS011;1668;49.648;8.570;2022-10-16T13:09:02;5.43;;;2.53;;
3311;SDS011;1668;49.648;8.570;2022-10-16T13:11:50;5.50;;;2.37;;
3311;SDS011;1668;49.648;8.570;2022-10-16T13:14:32;2.73;;;2.10;;
3311;SDS011;1668;49.648;8.570;2022-10-16T13:17:14;3.43;;;1.87;;
3311;SDS011;1668;49.648;8.570;2022-10-16T13:19:50;5.50;;;2.57;;
3311;SDS011;1668;49.648;8.570;2022-10-16T13:22:27;3.53;;;2.43;;
3311;SDS011;1668;49.648;8.570;2022-10-16T13:25:02;3.13;;;2.10;;
3311;SDS011;1668;49.648;8.570;2022-10-16T13:27:45;3.90;;;2.00;;
3311;SDS011;1668;49.648;8.570;2022-10-16T13:30:19;6.73;;;2.30;;
3311;SDS011;1668;49.648;8.570;2022-10-16T13:32:48;3.80;;;2.20;;
3311;SDS011;1668;49.648;8.570;2022-10-16T13:35:18;3.70;;;2.20;;
3311;SDS011;1668;49.648;8.570;2022-10-16T13:37:47;4.83;;;2.10;;
3311;SDS011;1668;49.648;8.570;2022-10-16T13:40:18;2.97;;;2.13;;
3311;SDS011;1668;49.648;8.570;2022-10-16T13:42:48;4.13;;;2.03;;
3311;SDS011;1668;49.648;8.570;2022-10-16T13:45:17;3.47;;;2.23;;
3311;SDS011;1668;49.648;8.570;2022-10-16T13:47:45;11.17;;;6.70;;
3311;SDS011;1668;49.648;8.570;2022-10-16T13:50:12;9.67;;;6.20;;
3311;SDS011;1668;49.648;8.570;2022-10-16T13:52:41;8.57;;;5.57;;
3311;SDS011;1668;49.648;8.570;2022-10-16T13:55:10;7.40;;;3.20;;
3311;SDS011;1668;49.648;8.570;2022-10-16T13:57:37;4.50;;;3.17;;
3311;SDS011;1668;49.648;8.570;2022-10-16T14:00:18;3.03;;;2.33;;
3311;SDS011;1668;49.648;8.570;2022-10-16T14:02:49;4.10;;;2.50;;
3311;SDS011;1668;49.648;8.570;2022-10-16T14:05:20;3.27;;;2.20;;
3311;SDS011;1668;49.648;8.570;2022-10-16T14:07:48;3.33;;;2.30;;
3311;SDS011;1668;49.648;8.570;2022-10-16T14:10:20;3.53;;;2.07;;
3311;SDS011;1668;49.648;8.570;2022-10-16T14:13:00;2.30;;;2.00;;
3311;SDS011;1668;49.648;8.570;2022-10-16T14:15:30;3.27;;;2.40;;
3311;SDS011;1668;49.648;8.570;2022-10-16T14:17:58;3.33;;;2.43;;
3311;SDS011;1668;49.648;8.570;2022-10-16T14:20:26;2.43;;;2.00;;
3311;SDS011;1668;49.648;8.570;2022-10-16T14:22:59;4.47;;;2.37;;
3311;SDS011;1668;49.648;8.570;2022-10-16T14:25:28;3.77;;;2.70;;
3311;SDS011;1668;49.648;8.570;2022-10-16T14:27:57;5.30;;;2.20;;
3311;SDS011;1668;49.648;8.570;2022-10-16T14:30:30;4.20;;;2.53;;
3311;SDS011;1668;49.648;8.570;2022-10-16T14:32:58;5.20;;;2.63;;
3311;SDS011;1668;49.648;8.570;2022-10-16T14:35:29;2.40;;;2.20;;
3311;SDS011;1668;49.648;8.570;2022-10-16T14:37:58;6.37;;;2.53;;
3311;SDS011;1668;49.648;8.570;2022-10-16T14:40:27;2.73;;;2.37;;
3311;SDS011;1668;49.648;8.570;2022-10-16T14:42:55;5.10;;;2.43;;
3311;SDS011;1668;49.648;8.570;2022-10-16T14:45:23;4.30;;;2.67;;
3311;SDS011;1668;49.648;8.570;2022-10-16T14:47:55;4.37;;;2.77;;
3311;SDS011;1668;49.648;8.570;2022-10-16T14:50:23;3.70;;;2.67;;
3311;SDS011;1668;49.648;8.570;2022-10-16T14:52:51;4.93;;;4.00;;
3311;SDS011;1668;49.648;8.570;2022-10-16T14:55:18;8.43;;;5.30;;
3311;SDS011;1668;49.648;8.570;2022-10-16T14:57:45;8.50;;;6.67;;
3311;SDS011;1668;49.648;8.570;2022-10-16T15:00:15;10.63;;;6.10;;
3311;SDS011;1668;49.648;8.570;2022-10-16T15:02:44;10.70;;;5.60;;
3311;SDS011;1668;49.648;8.570;2022-10-16T15:05:14;9.47;;;6.47;;
3311;SDS011;1668;49.648;8.570;2022-10-16T15:07:43;10.57;;;7.87;;
3311;SDS011;1668;49.648;8.570;2022-10-16T15:10:10;11.10;;;8.97;;
3311;SDS011;1668;49.648;8.570;2022-10-16T15:12:37;10.13;;;7.80;;
3311;SDS011;1668;49.648;8.570;2022-10-16T15:15:15;14.43;;;6.97;;
3311;SDS011;1668;49.648;8.570;2022-10-16T15:17:54;4.90;;;4.40;;
3311;SDS011;1668;49.648;8.570;2022-10-16T15:20:24;4.53;;;3.93;;
3311;SDS011;1668;49.648;8.570;2022-10-16T15:22:51;5.10;;;3.07;;
3311;SDS011;1668;49.648;8.570;2022-10-16T15:25:25;5.33;;;3.60;;
3311;SDS011;1668;49.648;8.570;2022-10-16T15:27:56;6.17;;;3.20;;
3311;SDS011;1668;49.648;8.570;2022-10-16T15:30:24;4.97;;;3.60;;
3311;SDS011;1668;49.648;8.570;2022-10-16T15:32:51;4.03;;;3.00;;
3311;SDS011;1668;49.648;8.570;2022-10-16T15:35:18;5.03;;;4.50;;
3311;SDS011;1668;49.648;8.570;2022-10-16T15:37:47;4.60;;;3.90;;
3311;SDS011;1668;49.648;8.570;2022-10-16T15:40:15;7.20;;;3.77;;